createdAt,value
2018-09-25T00:01:49.329Z,5.52
2018-09-25T00:04:24.643Z,5.56
2018-09-25T00:07:00.066Z,5.55
2018-09-25T00:09:35.407Z,5.46
2018-09-25T00:12:10.983Z,5.49
2018-09-25T00:14:46.488Z,5.42
2018-09-25T00:17:22.928Z,5.42
2018-09-25T00:19:58.470Z,5.43
2018-09-25T00:22:34.065Z,5.46
2018-09-25T00:25:09.481Z,5.45
2018-09-25T00:27:44.824Z,5.41
2018-09-25T00:30:21.331Z,5.49
2018-09-25T00:32:56.689Z,5.51
2018-09-25T00:35:31.889Z,5.52
2018-09-25T00:38:07.096Z,5.56
2018-09-25T00:40:42.368Z,5.43
2018-09-25T00:43:17.768Z,5.46
2018-09-25T00:45:53.071Z,5.42
2018-09-25T00:48:28.456Z,5.38
2018-09-25T00:51:03.785Z,5.37
2018-09-25T00:53:39.116Z,5.40
2018-09-25T00:56:14.347Z,5.49
2018-09-25T00:58:49.564Z,5.57
2018-09-25T01:01:24.726Z,5.69
2018-09-25T01:04:00.090Z,5.78
2018-09-25T01:06:35.356Z,5.86
2018-09-25T01:09:12.337Z,5.86
2018-09-25T01:11:47.818Z,6.12
2018-09-25T01:14:23.103Z,6.09
2018-09-25T01:16:58.437Z,6.09
2018-09-25T01:19:33.684Z,6.02
2018-09-25T01:22:08.936Z,6.12
2018-09-25T01:24:44.317Z,6.22
2018-09-25T01:27:19.395Z,6.26
2018-09-25T01:29:54.746Z,6.22
2018-09-25T01:32:29.972Z,6.16
2018-09-25T01:35:05.553Z,6.22
2018-09-25T01:37:40.756Z,6.23
2018-09-25T01:40:16.133Z,6.14
2018-09-25T01:42:51.508Z,6.12
2018-09-25T01:45:26.788Z,6.14
2018-09-25T01:48:02.120Z,5.97
2018-09-25T01:50:37.491Z,6.04
2018-09-25T01:53:12.723Z,6.01
2018-09-25T01:55:48.023Z,5.95
2018-09-25T01:58:23.564Z,6.02
2018-09-25T02:00:59.031Z,5.86
2018-09-25T02:03:34.400Z,5.78
2018-09-25T02:06:09.811Z,5.68
2018-09-25T02:08:44.945Z,5.71
2018-09-25T02:11:20.356Z,5.71
2018-09-25T02:13:55.650Z,5.63
2018-09-25T02:16:31.071Z,5.68
2018-09-25T02:19:06.341Z,5.64
2018-09-25T02:21:41.595Z,5.63
2018-09-25T02:24:16.857Z,5.54
2018-09-25T02:26:52.083Z,5.52
2018-09-25T02:29:27.479Z,5.54
2018-09-25T02:32:02.756Z,5.56
2018-09-25T02:34:38.170Z,5.66
2018-09-25T02:37:13.789Z,5.77
2018-09-25T02:39:49.206Z,5.86
2018-09-25T02:42:24.679Z,5.94
2018-09-25T02:45:00.056Z,5.89
2018-09-25T02:47:35.459Z,5.98
2018-09-25T02:50:10.900Z,6.16
2018-09-25T02:52:46.185Z,6.17
2018-09-25T02:55:21.580Z,6.27
2018-09-25T02:57:57.773Z,6.22
2018-09-25T03:00:33.138Z,6.24
2018-09-25T03:03:08.661Z,6.34
2018-09-25T03:05:43.926Z,6.25
2018-09-25T03:08:19.222Z,6.25
2018-09-25T03:10:54.423Z,6.14
2018-09-25T03:13:29.770Z,6.07
2018-09-25T03:16:05.384Z,6.01
2018-09-25T03:18:40.809Z,5.95
2018-09-25T03:21:16.109Z,5.89
2018-09-25T03:23:51.378Z,5.87
2018-09-25T03:26:26.842Z,5.91
2018-09-25T03:29:02.388Z,5.88
2018-09-25T03:31:37.647Z,5.88
2018-09-25T03:34:13.115Z,5.88
2018-09-25T03:36:48.499Z,5.92
2018-09-25T03:39:23.948Z,6.04
2018-09-25T03:41:59.375Z,6.03
2018-09-25T03:44:34.708Z,6.08
2018-09-25T03:47:10.023Z,6.14
2018-09-25T03:49:45.436Z,6.14
2018-09-25T03:52:20.924Z,6.14
2018-09-25T03:54:56.442Z,6.12
2018-09-25T03:57:31.695Z,6.07
2018-09-25T04:00:07.200Z,6.05
2018-09-25T04:02:42.601Z,5.99
2018-09-25T04:05:18.225Z,6.04
2018-09-25T04:07:53.479Z,6.01
2018-09-25T04:10:28.711Z,5.91
2018-09-25T04:13:03.807Z,5.79
2018-09-25T04:15:39.136Z,5.79
2018-09-25T04:18:14.420Z,5.75
2018-09-25T04:20:49.763Z,5.75
2018-09-25T04:23:25.147Z,5.66
2018-09-25T04:26:00.700Z,5.58
2018-09-25T04:28:36.078Z,5.56
2018-09-25T04:31:11.391Z,5.59
2018-09-25T04:33:46.754Z,5.57
2018-09-25T04:36:22.091Z,5.53
2018-09-25T04:38:57.536Z,5.46
2018-09-25T04:41:33.032Z,5.40
2018-09-25T04:44:08.540Z,5.35
2018-09-25T04:46:43.951Z,5.38
2018-09-25T04:49:19.271Z,5.30
2018-09-25T04:51:55.395Z,5.23
2018-09-25T04:54:30.797Z,5.18
2018-09-25T04:57:06.272Z,5.15
2018-09-25T04:59:41.543Z,5.13
2018-09-25T05:02:16.887Z,5.15
2018-09-25T05:04:52.143Z,5.16
2018-09-25T05:07:27.555Z,5.08
2018-09-25T05:10:02.968Z,5.02
2018-09-25T05:12:38.220Z,5.02
2018-09-25T05:15:13.599Z,5.05
2018-09-25T05:17:48.811Z,4.99
2018-09-25T05:20:24.107Z,5.04
2018-09-25T05:22:59.503Z,5.07
2018-09-25T05:25:34.814Z,5.09
2018-09-25T05:28:10.104Z,5.10
2018-09-25T05:30:45.536Z,5.13
2018-09-25T05:33:20.825Z,5.28
2018-09-25T05:35:56.100Z,5.37
2018-09-25T05:38:31.504Z,5.45
2018-09-25T05:41:07.033Z,5.50
2018-09-25T05:43:42.287Z,5.75
2018-09-25T05:46:17.985Z,6.13
2018-09-25T05:48:53.344Z,7.37
2018-09-25T05:51:28.719Z,8.29
2018-09-25T05:54:03.847Z,9.06
2018-09-25T05:56:39.191Z,9.57
2018-09-25T05:59:14.402Z,10.26
2018-09-25T06:01:49.706Z,10.75
2018-09-25T06:04:25.059Z,11.14
2018-09-25T06:07:00.272Z,11.33
2018-09-25T06:09:35.484Z,11.60
2018-09-25T06:12:10.977Z,11.74
2018-09-25T06:14:46.299Z,12.33
2018-09-25T06:17:21.780Z,12.32
2018-09-25T06:19:57.280Z,13.08
2018-09-25T06:22:32.587Z,13.21
2018-09-25T06:25:07.926Z,13.43
2018-09-25T06:27:43.354Z,14.14
2018-09-25T06:30:18.673Z,13.92
2018-09-25T06:32:54.205Z,14.20
2018-09-25T06:35:29.553Z,14.62
2018-09-25T06:38:04.873Z,14.85
2018-09-25T06:40:40.234Z,12.78
2018-09-25T06:43:15.815Z,11.78
2018-09-25T06:45:51.127Z,11.62
2018-09-25T06:48:26.626Z,10.40
2018-09-25T06:51:02.146Z,10.38
2018-09-25T06:53:37.430Z,11.20
2018-09-25T06:56:12.948Z,10.91
2018-09-25T06:58:48.372Z,11.30
2018-09-25T07:01:23.596Z,13.22
2018-09-25T07:03:58.856Z,13.98
2018-09-25T07:06:34.283Z,14.50
2018-09-25T07:09:11.102Z,15.55
2018-09-25T07:11:46.483Z,16.18
2018-09-25T07:14:21.615Z,16.74
2018-09-25T07:16:56.848Z,17.19
2018-09-25T07:19:32.120Z,16.91
2018-09-25T07:22:07.489Z,17.52
2018-09-25T07:24:43.003Z,17.88
2018-09-25T07:27:18.244Z,18.49
2018-09-25T07:29:53.591Z,18.11
2018-09-25T07:32:29.131Z,18.04
2018-09-25T07:35:04.369Z,18.75
2018-09-25T07:37:39.711Z,19.60
2018-09-25T07:40:14.851Z,19.83
2018-09-25T07:42:50.376Z,19.26
2018-09-25T07:45:25.940Z,19.16
2018-09-25T07:48:01.259Z,19.00
2018-09-25T07:50:36.562Z,18.86
2018-09-25T07:53:11.904Z,19.16
2018-09-25T07:55:47.213Z,19.73
2018-09-25T07:58:22.609Z,19.70
2018-09-25T08:00:57.807Z,19.88
2018-09-25T08:03:33.275Z,19.94
2018-09-25T08:06:08.751Z,19.54
2018-09-25T08:08:43.970Z,19.82
2018-09-25T08:11:19.405Z,19.55
2018-09-25T08:13:54.998Z,19.96
2018-09-25T08:16:30.442Z,19.38
2018-09-25T08:19:06.061Z,19.30
2018-09-25T08:21:41.583Z,19.58
2018-09-25T08:24:16.716Z,19.47
2018-09-25T08:26:51.948Z,19.20
2018-09-25T08:29:27.297Z,19.71
2018-09-25T08:32:02.655Z,19.25
2018-09-25T08:34:37.954Z,18.80
2018-09-25T08:37:13.636Z,19.44
2018-09-25T08:39:49.295Z,18.63
2018-09-25T08:42:24.731Z,18.99
2018-09-25T08:45:00.200Z,19.27
2018-09-25T08:47:35.658Z,19.09
2018-09-25T08:50:11.164Z,18.69
2018-09-25T08:52:46.515Z,19.44
2018-09-25T08:55:22.021Z,18.95
2018-09-25T08:57:57.386Z,18.68
2018-09-25T09:00:32.935Z,18.35
2018-09-25T09:03:08.423Z,18.18
2018-09-25T09:05:44.388Z,18.15
2018-09-25T09:08:20.220Z,18.41
2018-09-25T09:10:55.711Z,17.57
2018-09-25T09:13:31.165Z,18.05
2018-09-25T09:16:06.619Z,17.88
2018-09-25T09:18:41.972Z,18.34
2018-09-25T09:21:17.194Z,17.47
2018-09-25T09:23:52.515Z,17.23
2018-09-25T09:26:27.840Z,17.02
2018-09-25T09:29:03.177Z,16.50
2018-09-25T09:31:38.480Z,17.06
2018-09-25T09:34:14.005Z,17.50
2018-09-25T09:36:49.459Z,17.03
2018-09-25T09:39:24.835Z,17.54
2018-09-25T09:42:00.273Z,17.40
2018-09-25T09:44:35.413Z,17.12
2018-09-25T09:47:10.905Z,17.49
2018-09-25T09:49:46.250Z,17.70
2018-09-25T09:52:21.511Z,17.94
2018-09-25T09:54:57.947Z,17.85
2018-09-25T09:57:33.129Z,18.05
2018-09-25T10:00:08.475Z,17.32
2018-09-25T10:02:43.785Z,16.72
2018-09-25T10:05:19.247Z,16.19
2018-09-25T10:07:54.375Z,15.72
2018-09-25T10:10:29.713Z,15.54
2018-09-25T10:13:05.184Z,15.84
2018-09-25T10:15:40.737Z,15.43
2018-09-25T10:18:16.033Z,15.49
2018-09-25T10:20:51.263Z,16.41
2018-09-25T10:23:26.564Z,17.36
2018-09-25T10:26:01.747Z,17.48
2018-09-25T10:28:36.995Z,16.82
2018-09-25T10:31:12.432Z,16.25
2018-09-25T10:33:47.960Z,16.35
2018-09-25T10:36:23.499Z,16.86
2018-09-25T10:38:58.983Z,16.54
2018-09-25T10:41:34.332Z,16.32
2018-09-25T10:44:09.693Z,16.22
2018-09-25T10:46:45.091Z,15.93
2018-09-25T10:49:20.492Z,16.26
2018-09-25T10:51:55.796Z,16.59
2018-09-25T10:54:31.252Z,16.04
2018-09-25T10:57:06.772Z,15.67
2018-09-25T10:59:42.152Z,15.92
2018-09-25T11:02:17.552Z,16.49
2018-09-25T11:04:52.916Z,16.40
2018-09-25T11:07:28.231Z,16.17
2018-09-25T11:10:03.896Z,16.00
2018-09-25T11:12:39.233Z,15.74
2018-09-25T11:15:14.923Z,15.37
2018-09-25T11:17:50.407Z,15.32
2018-09-25T11:20:25.787Z,16.16
2018-09-25T11:23:01.007Z,16.20
2018-09-25T11:25:36.387Z,16.00
2018-09-25T11:28:11.780Z,15.65
2018-09-25T11:30:47.275Z,15.49
2018-09-25T11:33:22.538Z,15.29
2018-09-25T11:35:58.062Z,14.95
2018-09-25T11:38:33.411Z,14.79
2018-09-25T11:41:08.736Z,15.23
2018-09-25T11:43:44.032Z,15.97
2018-09-25T11:46:19.334Z,16.23
2018-09-25T11:48:54.810Z,16.48
2018-09-25T11:51:30.317Z,16.79
2018-09-25T11:54:05.816Z,17.11
2018-09-25T11:56:41.322Z,17.43
2018-09-25T11:59:16.730Z,17.66
2018-09-25T12:01:51.982Z,17.38
2018-09-25T12:04:27.263Z,17.34
2018-09-25T12:07:02.822Z,17.06
2018-09-25T12:09:38.090Z,17.43
2018-09-25T12:12:13.533Z,17.72
2018-09-25T12:14:48.885Z,17.43
2018-09-25T12:17:24.171Z,17.20
2018-09-25T12:19:59.350Z,17.43
2018-09-25T12:22:34.853Z,17.20
2018-09-25T12:25:10.060Z,17.40
2018-09-25T12:27:46.084Z,17.25
2018-09-25T12:30:21.596Z,17.38
2018-09-25T12:32:56.899Z,17.72
2018-09-25T12:35:32.416Z,17.66
2018-09-25T12:38:07.748Z,17.83
2018-09-25T12:40:43.043Z,17.51
2018-09-25T12:43:18.311Z,17.30
2018-09-25T12:45:53.783Z,17.06
2018-09-25T12:48:29.012Z,16.89
2018-09-25T12:51:04.484Z,16.74
2018-09-25T12:53:40.012Z,16.76
2018-09-25T12:56:15.475Z,16.36
2018-09-25T12:58:51.195Z,16.31
2018-09-25T13:01:26.649Z,16.25
2018-09-25T13:04:01.890Z,16.20
2018-09-25T13:06:37.055Z,16.14
2018-09-25T13:09:15.008Z,16.10
2018-09-25T13:11:51.063Z,16.06
2018-09-25T13:14:26.539Z,16.34
2018-09-25T13:17:01.942Z,16.54
2018-09-25T13:19:37.202Z,16.57
2018-09-25T13:22:12.697Z,16.80
2018-09-25T13:24:48.360Z,16.84
2018-09-25T13:27:23.767Z,16.75
2018-09-25T13:29:59.172Z,17.00
2018-09-25T13:32:34.336Z,16.84
2018-09-25T13:35:09.675Z,17.09
2018-09-25T13:37:44.905Z,17.48
2018-09-25T13:40:20.269Z,16.98
2018-09-25T13:42:55.560Z,17.22
2018-09-25T13:45:30.903Z,16.98
2018-09-25T13:48:06.215Z,17.10
2018-09-25T13:50:41.488Z,16.87
2018-09-25T13:53:16.764Z,17.00
2018-09-25T13:55:52.108Z,16.84
2018-09-25T13:58:27.619Z,17.23
2018-09-25T14:01:03.213Z,17.04
2018-09-25T14:03:38.452Z,17.09
2018-09-25T14:06:14.042Z,17.04
2018-09-25T14:08:49.606Z,17.20
2018-09-25T14:11:24.843Z,17.05
2018-09-25T14:14:00.304Z,17.21
2018-09-25T14:16:35.709Z,17.20
2018-09-25T14:19:11.213Z,17.18
2018-09-25T14:21:46.413Z,17.05
2018-09-25T14:24:21.940Z,17.05
2018-09-25T14:26:57.440Z,16.93
2018-09-25T14:29:32.822Z,16.96
2018-09-25T14:32:08.133Z,16.73
2018-09-25T14:34:43.382Z,16.48
2018-09-25T14:37:18.855Z,16.56
2018-09-25T14:39:54.223Z,16.53
2018-09-25T14:42:29.553Z,16.57
2018-09-25T14:45:05.117Z,16.33
2018-09-25T14:47:40.374Z,16.18
2018-09-25T14:50:15.621Z,16.42
2018-09-25T14:52:50.952Z,16.19
2018-09-25T14:55:26.157Z,16.15
2018-09-25T14:58:01.675Z,16.17
2018-09-25T15:00:37.739Z,16.21
2018-09-25T15:03:13.178Z,16.10
2018-09-25T15:05:48.487Z,16.03
2018-09-25T15:08:23.764Z,15.87
2018-09-25T15:10:59.249Z,15.82
2018-09-25T15:13:34.774Z,15.91
2018-09-25T15:16:10.402Z,15.80
2018-09-25T15:18:45.905Z,15.77
2018-09-25T15:21:21.644Z,15.66
2018-09-25T15:23:56.855Z,15.62
2018-09-25T15:26:32.278Z,15.42
2018-09-25T15:29:07.385Z,15.38
2018-09-25T15:31:42.797Z,15.35
2018-09-25T15:34:18.020Z,15.27
2018-09-25T15:36:53.432Z,15.09
2018-09-25T15:39:28.819Z,15.04
2018-09-25T15:42:04.423Z,15.10
2018-09-25T15:44:39.993Z,14.97
2018-09-25T15:47:15.623Z,14.90
2018-09-25T15:49:50.889Z,14.74
2018-09-25T15:52:26.264Z,14.67
2018-09-25T15:55:01.540Z,14.50
2018-09-25T15:57:36.723Z,14.45
2018-09-25T16:00:12.167Z,14.38
2018-09-25T16:02:47.684Z,14.33
2018-09-25T16:05:22.980Z,14.31
2018-09-25T16:07:58.542Z,14.37
2018-09-25T16:10:34.007Z,14.33
2018-09-25T16:13:09.441Z,14.46
2018-09-25T16:15:44.751Z,14.51
2018-09-25T16:18:20.236Z,14.36
2018-09-25T16:20:55.443Z,14.33
2018-09-25T16:23:30.710Z,14.35
2018-09-25T16:26:05.922Z,14.27
2018-09-25T16:28:41.382Z,14.20
2018-09-25T16:31:16.608Z,14.15
2018-09-25T16:33:51.923Z,14.02
2018-09-25T16:36:27.206Z,13.93
2018-09-25T16:39:02.684Z,13.84
2018-09-25T16:41:38.260Z,13.75
2018-09-25T16:44:13.913Z,13.65
2018-09-25T16:46:49.186Z,13.52
2018-09-25T16:49:24.616Z,13.43
2018-09-25T16:51:59.979Z,13.35
2018-09-25T16:54:35.395Z,13.17
2018-09-25T16:57:11.020Z,12.99
2018-09-25T16:59:46.402Z,12.84
2018-09-25T17:02:21.890Z,12.73
2018-09-25T17:04:57.339Z,12.56
2018-09-25T17:07:32.920Z,12.41
2018-09-25T17:10:08.181Z,12.27
2018-09-25T17:12:43.503Z,12.14
2018-09-25T17:15:18.839Z,12.04
2018-09-25T17:17:54.009Z,11.94
2018-09-25T17:20:29.385Z,11.88
2018-09-25T17:23:04.595Z,11.80
2018-09-25T17:25:40.039Z,11.78
2018-09-25T17:28:15.224Z,11.71
2018-09-25T17:30:50.396Z,11.59
2018-09-25T17:33:25.883Z,11.55
2018-09-25T17:36:01.441Z,11.46
2018-09-25T17:38:36.844Z,11.42
2018-09-25T17:41:12.320Z,11.31
2018-09-25T17:43:47.728Z,11.19
2018-09-25T17:46:23.250Z,11.10
2018-09-25T17:48:58.528Z,10.97
2018-09-25T17:51:33.856Z,10.88
2018-09-25T17:54:09.214Z,10.80
2018-09-25T17:56:44.517Z,10.70
2018-09-25T17:59:19.918Z,10.63
2018-09-25T18:01:55.442Z,10.49
2018-09-25T18:04:30.725Z,10.39
2018-09-25T18:07:05.935Z,10.26
2018-09-25T18:09:41.561Z,10.10
2018-09-25T18:12:17.259Z,9.97
2018-09-25T18:14:52.514Z,9.89
2018-09-25T18:17:27.846Z,9.82
2018-09-25T18:20:03.148Z,9.92
2018-09-25T18:22:38.659Z,9.74
2018-09-25T18:25:13.973Z,9.66
2018-09-25T18:27:49.372Z,9.72
2018-09-25T18:30:24.663Z,9.66
2018-09-25T18:32:59.840Z,9.71
2018-09-25T18:35:35.117Z,9.62
2018-09-25T18:38:10.536Z,9.58
2018-09-25T18:40:46.337Z,9.58
2018-09-25T18:43:21.736Z,9.58
2018-09-25T18:45:56.993Z,9.55
2018-09-25T18:48:32.338Z,9.57
2018-09-25T18:51:07.633Z,9.54
2018-09-25T18:53:43.137Z,9.48
2018-09-25T18:56:18.764Z,9.45
2018-09-25T18:58:54.003Z,9.41
2018-09-25T19:01:29.488Z,9.39
2018-09-25T19:04:04.875Z,9.33
2018-09-25T19:06:40.318Z,9.25
2018-09-25T19:09:15.984Z,9.33
2018-09-25T19:11:51.162Z,9.28
2018-09-25T19:14:26.588Z,9.20
2018-09-25T19:17:02.044Z,9.12
2018-09-25T19:19:37.573Z,9.13
2018-09-25T19:22:12.797Z,9.09
2018-09-25T19:24:48.174Z,9.02
2018-09-25T19:27:29.862Z,8.95
2018-09-25T19:30:05.202Z,8.95
2018-09-25T19:32:40.252Z,8.87
2018-09-25T19:35:15.469Z,8.79
2018-09-25T19:37:50.399Z,8.80
2018-09-25T19:40:25.415Z,8.78
2018-09-25T19:43:00.941Z,8.66
2018-09-25T19:45:36.491Z,8.61
2018-09-25T19:48:12.029Z,8.58
2018-09-25T19:50:47.307Z,8.60
2018-09-25T19:53:22.820Z,8.49
2018-09-25T19:55:58.011Z,8.51
2018-09-25T19:58:33.409Z,8.52
2018-09-25T20:01:08.812Z,8.39
2018-09-25T20:03:44.000Z,8.44
2018-09-25T20:06:19.352Z,8.41
2018-09-25T20:08:54.792Z,8.40
2018-09-25T20:11:30.220Z,8.34
2018-09-25T20:14:05.634Z,8.28
2018-09-25T20:16:40.964Z,8.25
2018-09-25T20:19:16.159Z,8.19
2018-09-25T20:21:51.487Z,8.16
2018-09-25T20:24:26.807Z,8.07
2018-09-25T20:27:02.250Z,8.10
2018-09-25T20:29:37.687Z,8.07
2018-09-25T20:32:13.283Z,8.09
2018-09-25T20:34:48.743Z,8.07
2018-09-25T20:37:24.120Z,8.01
2018-09-25T20:39:59.615Z,7.96
2018-09-25T20:42:35.036Z,7.99
2018-09-25T20:45:10.550Z,7.94
2018-09-25T20:47:46.109Z,7.93
2018-09-25T20:50:21.607Z,7.96
2018-09-25T20:52:56.893Z,7.96
2018-09-25T20:55:32.267Z,7.82
2018-09-25T20:58:07.891Z,7.84
2018-09-25T21:00:43.502Z,7.75
2018-09-25T21:03:18.836Z,7.69
2018-09-25T21:05:54.048Z,7.57
2018-09-25T21:08:29.217Z,7.58
2018-09-25T21:11:04.515Z,7.53
2018-09-25T21:13:39.668Z,7.39
2018-09-25T21:16:15.084Z,7.41
2018-09-25T21:18:50.376Z,7.39
2018-09-25T21:21:25.851Z,7.39
2018-09-25T21:24:07.956Z,7.41
2018-09-25T21:26:43.208Z,7.40
2018-09-25T21:29:18.479Z,7.36
2018-09-25T21:31:53.781Z,7.36
2018-09-25T21:34:29.192Z,7.34
2018-09-25T21:37:04.724Z,7.35
2018-09-25T21:39:40.201Z,7.37
2018-09-25T21:42:15.546Z,7.37
2018-09-25T21:44:50.767Z,7.44
2018-09-25T21:47:26.113Z,7.38
2018-09-25T21:50:01.459Z,7.41
2018-09-25T21:52:36.731Z,7.44
2018-09-25T21:55:12.255Z,7.49
2018-09-25T21:57:47.538Z,7.59
2018-09-25T22:00:23.875Z,7.62
2018-09-25T22:02:59.300Z,7.57
2018-09-25T22:05:34.688Z,7.66
2018-09-25T22:08:10.060Z,7.59
2018-09-25T22:10:45.510Z,7.59
2018-09-25T22:13:20.799Z,7.61
2018-09-25T22:15:56.147Z,7.56
2018-09-25T22:18:31.571Z,7.52
2018-09-25T22:21:06.840Z,7.44
2018-09-25T22:23:42.285Z,7.32
2018-09-25T22:26:17.758Z,7.33
2018-09-25T22:28:53.063Z,7.30
2018-09-25T22:31:28.632Z,7.27
2018-09-25T22:34:04.069Z,7.35
2018-09-25T22:36:39.523Z,7.39
2018-09-25T22:39:16.292Z,7.45
2018-09-25T22:41:51.879Z,7.48
2018-09-25T22:44:27.258Z,7.38
2018-09-25T22:47:02.621Z,7.32
2018-09-25T22:49:38.060Z,7.29
2018-09-25T22:52:13.540Z,7.29
2018-09-25T22:54:48.636Z,7.30
2018-09-25T22:57:23.991Z,7.29
2018-09-25T22:59:59.471Z,7.22
2018-09-25T23:02:34.928Z,7.21
2018-09-25T23:05:11.316Z,7.08
2018-09-25T23:07:46.627Z,7.08
2018-09-25T23:10:22.038Z,7.09
2018-09-25T23:12:57.363Z,7.05
2018-09-25T23:15:32.724Z,6.93
2018-09-25T23:18:08.100Z,6.89
2018-09-25T23:20:43.400Z,6.92
2018-09-25T23:23:18.679Z,6.89
2018-09-25T23:25:54.030Z,6.82
2018-09-25T23:28:29.237Z,6.75
2018-09-25T23:31:04.611Z,6.71
2018-09-25T23:33:40.022Z,6.73
2018-09-25T23:36:15.411Z,6.67
2018-09-25T23:38:50.669Z,6.57
2018-09-25T23:41:43.541Z,6.56
2018-09-25T23:44:51.720Z,6.63
2018-09-25T23:47:33.373Z,6.63
2018-09-25T23:50:09.472Z,6.64
2018-09-25T23:53:57.888Z,6.57
2018-09-25T23:56:36.178Z,6.62
2018-09-25T23:59:11.289Z,6.64
